sensor_id;sensor_type;location;lat;lon;timestamp;pressure;altitude;pressure_sealevel;temperature;humidity
59650;BME280;46162;57.568;25.814;2022-11-11T00:01:29;101192.28;;;7.94;100.00
59650;BME280;46162;57.568;25.814;2022-11-11T00:04:18;101195.19;;;7.91;100.00
59650;BME280;46162;57.568;25.814;2022-11-11T00:07:05;101187.25;;;7.89;100.00
59650;BME280;46162;57.568;25.814;2022-11-11T00:09:52;101191.41;;;7.93;100.00
59650;BME280;46162;57.568;25.814;2022-11-11T00:12:39;101188.59;;;7.95;100.00
59650;BME280;46162;57.568;25.814;2022-11-11T00:15:27;101182.47;;;7.93;100.00
59650;BME280;46162;57.568;25.814;2022-11-11T00:18:14;101179.31;;;7.88;100.00
59650;BME280;46162;57.568;25.814;2022-11-11T00:21:20;101176.88;;;7.85;100.00
59650;BME280;46162;57.568;25.814;2022-11-11T00:24:29;101170.50;;;7.86;100.00
59650;BME280;46162;57.568;25.814;2022-11-11T00:27:34;101165.28;;;7.84;100.00
59650;BME280;46162;57.568;25.814;2022-11-11T00:30:21;101171.59;;;7.83;100.00
59650;BME280;46162;57.568;25.814;2022-11-11T00:33:09;101174.06;;;7.86;100.00
59650;BME280;46162;57.568;25.814;2022-11-11T00:35:56;101175.88;;;7.86;100.00
59650;BME280;46162;57.568;25.814;2022-11-11T00:38:45;101185.03;;;7.83;100.00
59650;BME280;46162;57.568;25.814;2022-11-11T00:41:32;101192.91;;;7.86;100.00
59650;BME280;46162;57.568;25.814;2022-11-11T00:44:20;101186.88;;;7.83;100.00
59650;BME280;46162;57.568;25.814;2022-11-11T00:47:07;101191.41;;;7.82;100.00
59650;BME280;46162;57.568;25.814;2022-11-11T00:50:14;101188.72;;;7.82;100.00
59650;BME280;46162;57.568;25.814;2022-11-11T00:53:21;101193.84;;;7.85;100.00
59650;BME280;46162;57.568;25.814;2022-11-11T00:56:13;101198.28;;;7.86;100.00
59650;BME280;46162;57.568;25.814;2022-11-11T00:59:00;101192.75;;;7.88;100.00
59650;BME280;46162;57.568;25.814;2022-11-11T01:01:47;101193.00;;;7.85;100.00
59650;BME280;46162;57.568;25.814;2022-11-11T01:04:34;101191.16;;;7.85;100.00
59650;BME280;46162;57.568;25.814;2022-11-11T01:07:22;101190.31;;;7.85;100.00
59650;BME280;46162;57.568;25.814;2022-11-11T01:10:10;101189.56;;;7.83;100.00
59650;BME280;46162;57.568;25.814;2022-11-11T01:12:58;101191.16;;;7.85;100.00
59650;BME280;46162;57.568;25.814;2022-11-11T01:16:00;101182.34;;;7.83;100.00
59650;BME280;46162;57.568;25.814;2022-11-11T01:18:49;101185.19;;;7.82;100.00
59650;BME280;46162;57.568;25.814;2022-11-11T01:21:36;101185.56;;;7.77;100.00
59650;BME280;46162;57.568;25.814;2022-11-11T01:24:24;101179.69;;;7.72;100.00
59650;BME280;46162;57.568;25.814;2022-11-11T01:27:11;101177.34;;;7.67;100.00
59650;BME280;46162;57.568;25.814;2022-11-11T01:29:59;101176.72;;;7.64;100.00
59650;BME280;46162;57.568;25.814;2022-11-11T01:32:46;101176.97;;;7.61;100.00
59650;BME280;46162;57.568;25.814;2022-11-11T01:35:37;101177.22;;;7.58;100.00
59650;BME280;46162;57.568;25.814;2022-11-11T01:38:24;101175.50;;;7.57;100.00
59650;BME280;46162;57.568;25.814;2022-11-11T01:41:14;101175.50;;;7.57;100.00
59650;BME280;46162;57.568;25.814;2022-11-11T01:44:42;101182.84;;;7.54;100.00
59650;BME280;46162;57.568;25.814;2022-11-11T01:47:33;101177.69;;;7.51;100.00
59650;BME280;46162;57.568;25.814;2022-11-11T01:50:55;101175.38;;;7.47;100.00
59650;BME280;46162;57.568;25.814;2022-11-11T01:53:45;101174.00;;;7.41;100.00
59650;BME280;46162;57.568;25.814;2022-11-11T01:56:35;101170.59;;;7.39;100.00
59650;BME280;46162;57.568;25.814;2022-11-11T01:59:23;101172.91;;;7.32;100.00
59650;BME280;46162;57.568;25.814;2022-11-11T02:02:15;101173.16;;;7.29;100.00
59650;BME280;46162;57.568;25.814;2022-11-11T02:05:09;101168.13;;;7.25;100.00
59650;BME280;46162;57.568;25.814;2022-11-11T02:08:16;101161.28;;;7.21;100.00
59650;BME280;46162;57.568;25.814;2022-11-11T02:11:19;101158.84;;;7.18;100.00
59650;BME280;46162;57.568;25.814;2022-11-11T02:14:22;101157.34;;;7.14;100.00
59650;BME280;46162;57.568;25.814;2022-11-11T02:17:30;101153.31;;;7.08;100.00
59650;BME280;46162;57.568;25.814;2022-11-11T02:20:20;101166.00;;;7.06;100.00
59650;BME280;46162;57.568;25.814;2022-11-11T02:23:11;101164.16;;;7.06;100.00
59650;BME280;46162;57.568;25.814;2022-11-11T02:26:04;101161.38;;;7.08;100.00
59650;BME280;46162;57.568;25.814;2022-11-11T02:28:53;101161.25;;;7.09;100.00
59650;BME280;46162;57.568;25.814;2022-11-11T02:31:41;101172.22;;;7.06;100.00
59650;BME280;46162;57.568;25.814;2022-11-11T02:34:29;101171.97;;;6.98;100.00
59650;BME280;46162;57.568;25.814;2022-11-11T02:37:20;101164.16;;;6.95;100.00
59650;BME280;46162;57.568;25.814;2022-11-11T02:40:08;101177.06;;;6.90;100.00
59650;BME280;46162;57.568;25.814;2022-11-11T02:42:58;101171.69;;;6.90;100.00
59650;BME280;46162;57.568;25.814;2022-11-11T02:45:45;101166.53;;;6.87;100.00
59650;BME280;46162;57.568;25.814;2022-11-11T02:48:33;101164.94;;;6.84;100.00
59650;BME280;46162;57.568;25.814;2022-11-11T02:51:21;101158.22;;;6.79;100.00
59650;BME280;46162;57.568;25.814;2022-11-11T02:54:08;101155.78;;;6.76;100.00
59650;BME280;46162;57.568;25.814;2022-11-11T02:56:55;101148.47;;;6.78;100.00
59650;BME280;46162;57.568;25.814;2022-11-11T02:59:58;101146.50;;;6.80;100.00
59650;BME280;46162;57.568;25.814;2022-11-11T03:02:46;101144.91;;;6.77;100.00
59650;BME280;46162;57.568;25.814;2022-11-11T03:05:33;101141.28;;;6.78;100.00
59650;BME280;46162;57.568;25.814;2022-11-11T03:08:20;101150.06;;;6.80;100.00
59650;BME280;46162;57.568;25.814;2022-11-11T03:11:08;101149.81;;;6.83;100.00
59650;BME280;46162;57.568;25.814;2022-11-11T03:13:56;101148.75;;;6.86;100.00
59650;BME280;46162;57.568;25.814;2022-11-11T03:16:45;101156.53;;;6.89;100.00
59650;BME280;46162;57.568;25.814;2022-11-11T03:19:50;101159.22;;;6.89;100.00
59650;BME280;46162;57.568;25.814;2022-11-11T03:22:37;101145.06;;;6.87;100.00
59650;BME280;46162;57.568;25.814;2022-11-11T03:25:41;101152.03;;;6.89;100.00
59650;BME280;46162;57.568;25.814;2022-11-11T03:28:28;101159.13;;;6.91;100.00
59650;BME280;46162;57.568;25.814;2022-11-11T03:31:15;101148.03;;;6.95;100.00
59650;BME280;46162;57.568;25.814;2022-11-11T03:34:04;101151.69;;;6.94;100.00
59650;BME280;46162;57.568;25.814;2022-11-11T03:37:09;101149.75;;;6.96;100.00
59650;BME280;46162;57.568;25.814;2022-11-11T03:40:14;101154.13;;;6.97;100.00
59650;BME280;46162;57.568;25.814;2022-11-11T03:43:01;101147.56;;;7.01;100.00
59650;BME280;46162;57.568;25.814;2022-11-11T03:45:50;101155.63;;;7.01;100.00
59650;BME280;46162;57.568;25.814;2022-11-11T03:48:37;101175.41;;;7.00;100.00
59650;BME280;46162;57.568;25.814;2022-11-11T03:51:26;101162.81;;;7.01;100.00
59650;BME280;46162;57.568;25.814;2022-11-11T03:54:13;101169.88;;;7.02;100.00
59650;BME280;46162;57.568;25.814;2022-11-11T03:57:00;101162.72;;;7.02;100.00
59650;BME280;46162;57.568;25.814;2022-11-11T04:00:06;101163.41;;;7.04;100.00
59650;BME280;46162;57.568;25.814;2022-11-11T04:03:04;101174.06;;;7.06;100.00
59650;BME280;46162;57.568;25.814;2022-11-11T04:06:10;101165.25;;;7.04;100.00
59650;BME280;46162;57.568;25.814;2022-11-11T04:09:16;101158.06;;;7.04;100.00
59650;BME280;46162;57.568;25.814;2022-11-11T04:12:22;101154.41;;;7.05;100.00
59650;BME280;46162;57.568;25.814;2022-11-11T04:15:10;101156.84;;;7.08;100.00
59650;BME280;46162;57.568;25.814;2022-11-11T04:18:15;101158.69;;;7.08;100.00
59650;BME280;46162;57.568;25.814;2022-11-11T04:21:03;101152.47;;;7.07;100.00
59650;BME280;46162;57.568;25.814;2022-11-11T04:24:08;101144.28;;;7.09;100.00
59650;BME280;46162;57.568;25.814;2022-11-11T04:27:24;101121.94;;;7.08;100.00
59650;BME280;46162;57.568;25.814;2022-11-11T04:30:11;101117.56;;;7.07;100.00
59650;BME280;46162;57.568;25.814;2022-11-11T04:32:58;101113.91;;;7.08;100.00
59650;BME280;46162;57.568;25.814;2022-11-11T04:35:48;101107.78;;;7.06;100.00
59650;BME280;46162;57.568;25.814;2022-11-11T04:38:35;101101.31;;;7.09;100.00
59650;BME280;46162;57.568;25.814;2022-11-11T04:41:40;101100.47;;;7.08;100.00
59650;BME280;46162;57.568;25.814;2022-11-11T04:44:48;101099.72;;;7.06;100.00
59650;BME280;46162;57.568;25.814;2022-11-11T04:47:55;101087.28;;;7.05;100.00
59650;BME280;46162;57.568;25.814;2022-11-11T04:50:43;101077.50;;;7.04;100.00
59650;BME280;46162;57.568;25.814;2022-11-11T04:53:31;101073.03;;;7.05;100.00
59650;BME280;46162;57.568;25.814;2022-11-11T04:56:19;101070.34;;;7.05;100.00
59650;BME280;46162;57.568;25.814;2022-11-11T04:59:26;101061.41;;;7.04;100.00
59650;BME280;46162;57.568;25.814;2022-11-11T05:02:15;101058.84;;;7.03;100.00
59650;BME280;46162;57.568;25.814;2022-11-11T05:05:20;101066.56;;;7.07;100.00
59650;BME280;46162;57.568;25.814;2022-11-11T05:08:07;101060.44;;;7.05;100.00
59650;BME280;46162;57.568;25.814;2022-11-11T05:11:12;101069.34;;;7.06;100.00
59650;BME280;46162;57.568;25.814;2022-11-11T05:14:01;101077.28;;;7.07;100.00
59650;BME280;46162;57.568;25.814;2022-11-11T05:17:08;101082.41;;;7.10;100.00
59650;BME280;46162;57.568;25.814;2022-11-11T05:20:15;101084.97;;;7.12;100.00
59650;BME280;46162;57.568;25.814;2022-11-11T05:23:27;101077.78;;;7.13;100.00
59650;BME280;46162;57.568;25.814;2022-11-11T05:26:37;101082.16;;;7.14;100.00
59650;BME280;46162;57.568;25.814;2022-11-11T05:29:23;101076.56;;;7.17;100.00
59650;BME280;46162;57.568;25.814;2022-11-11T05:32:15;101065.59;;;7.20;100.00
59650;BME280;46162;57.568;25.814;2022-11-11T05:35:03;101051.91;;;7.23;100.00
59650;BME280;46162;57.568;25.814;2022-11-11T05:37:52;101056.03;;;7.27;100.00
59650;BME280;46162;57.568;25.814;2022-11-11T05:40:54;101046.19;;;7.27;100.00
59650;BME280;46162;57.568;25.814;2022-11-11T05:43:42;101036.03;;;7.31;100.00
59650;BME280;46162;57.568;25.814;2022-11-11T05:46:29;101021.66;;;7.32;100.00
59650;BME280;46162;57.568;25.814;2022-11-11T05:49:16;101015.19;;;7.35;100.00
59650;BME280;46162;57.568;25.814;2022-11-11T05:52:05;101031.16;;;7.36;100.00
59650;BME280;46162;57.568;25.814;2022-11-11T05:54:54;101032.75;;;7.39;100.00
59650;BME280;46162;57.568;25.814;2022-11-11T05:57:41;101041.53;;;7.41;100.00
59650;BME280;46162;57.568;25.814;2022-11-11T06:00:28;101046.44;;;7.47;100.00
59650;BME280;46162;57.568;25.814;2022-11-11T06:03:16;101050.69;;;7.49;100.00
59650;BME280;46162;57.568;25.814;2022-11-11T06:06:03;101050.69;;;7.49;100.00
59650;BME280;46162;57.568;25.814;2022-11-11T06:08:51;101042.75;;;7.48;100.00
59650;BME280;46162;57.568;25.814;2022-11-11T06:11:40;101045.34;;;7.49;100.00
59650;BME280;46162;57.568;25.814;2022-11-11T06:14:27;101043.13;;;7.54;100.00
59650;BME280;46162;57.568;25.814;2022-11-11T06:17:14;101043.13;;;7.54;100.00
59650;BME280;46162;57.568;25.814;2022-11-11T06:20:02;101049.34;;;7.55;100.00
59650;BME280;46162;57.568;25.814;2022-11-11T06:22:49;101039.19;;;7.59;100.00
59650;BME280;46162;57.568;25.814;2022-11-11T06:25:42;101022.09;;;7.60;100.00
59650;BME280;46162;57.568;25.814;2022-11-11T06:28:50;101028.94;;;7.64;100.00
59650;BME280;46162;57.568;25.814;2022-11-11T06:31:37;101031.38;;;7.67;100.00
59650;BME280;46162;57.568;25.814;2022-11-11T06:34:24;101015.25;;;7.67;100.00
59650;BME280;46162;57.568;25.814;2022-11-11T06:37:11;101020.00;;;7.74;100.00
59650;BME280;46162;57.568;25.814;2022-11-11T06:39:59;101025.22;;;7.76;100.00
59650;BME280;46162;57.568;25.814;2022-11-11T06:42:46;101024.13;;;7.79;100.00
59650;BME280;46162;57.568;25.814;2022-11-11T06:45:35;101029.38;;;7.80;100.00
59650;BME280;46162;57.568;25.814;2022-11-11T06:48:24;101022.19;;;7.81;100.00
59650;BME280;46162;57.568;25.814;2022-11-11T06:51:12;101021.81;;;7.85;100.00
59650;BME280;46162;57.568;25.814;2022-11-11T06:53:59;101019.84;;;7.87;100.00
59650;BME280;46162;57.568;25.814;2022-11-11T06:56:47;101023.13;;;7.91;100.00
59650;BME280;46162;57.568;25.814;2022-11-11T06:59:34;101016.91;;;7.90;100.00
59650;BME280;46162;57.568;25.814;2022-11-11T07:02:23;101015.78;;;7.93;100.00
59650;BME280;46162;57.568;25.814;2022-11-11T07:05:11;101017.63;;;7.92;100.00
59650;BME280;46162;57.568;25.814;2022-11-11T07:08:01;101002.50;;;7.91;100.00
59650;BME280;46162;57.568;25.814;2022-11-11T07:10:49;100997.59;;;7.96;100.00
59650;BME280;46162;57.568;25.814;2022-11-11T07:13:36;100998.28;;;7.98;100.00
59650;BME280;46162;57.568;25.814;2022-11-11T07:16:23;100990.97;;;8.01;100.00
59650;BME280;46162;57.568;25.814;2022-11-11T07:19:12;100998.91;;;8.02;100.00
59650;BME280;46162;57.568;25.814;2022-11-11T07:21:59;101002.44;;;8.03;100.00
59650;BME280;46162;57.568;25.814;2022-11-11T07:24:46;101007.69;;;8.04;100.00
59650;BME280;46162;57.568;25.814;2022-11-11T07:27:36;101005.59;;;8.08;100.00
59650;BME280;46162;57.568;25.814;2022-11-11T07:30:24;101006.59;;;8.07;100.00
59650;BME280;46162;57.568;25.814;2022-11-11T07:33:11;100976.88;;;8.08;100.00
59650;BME280;46162;57.568;25.814;2022-11-11T07:36:00;100978.59;;;8.09;100.00
59650;BME280;46162;57.568;25.814;2022-11-11T07:38:48;100979.44;;;8.10;100.00
59650;BME280;46162;57.568;25.814;2022-11-11T07:41:35;100985.41;;;8.13;100.00
59650;BME280;46162;57.568;25.814;2022-11-11T07:44:22;100990.78;;;8.13;100.00
59650;BME280;46162;57.568;25.814;2022-11-11T07:47:10;100993.34;;;8.15;100.00
59650;BME280;46162;57.568;25.814;2022-11-11T07:49:57;100995.91;;;8.16;100.00
59650;BME280;46162;57.568;25.814;2022-11-11T07:52:53;100994.81;;;8.19;100.00
59650;BME280;46162;57.568;25.814;2022-11-11T07:55:41;100987.59;;;8.19;100.00
59650;BME280;46162;57.568;25.814;2022-11-11T07:58:28;100994.53;;;8.22;100.00
59650;BME280;46162;57.568;25.814;2022-11-11T08:01:15;100986.09;;;8.27;100.00
59650;BME280;46162;57.568;25.814;2022-11-11T08:04:03;100976.91;;;8.29;100.00
59650;BME280;46162;57.568;25.814;2022-11-11T08:06:50;100974.94;;;8.31;100.00
59650;BME280;46162;57.568;25.814;2022-11-11T08:09:40;100974.69;;;8.34;100.00
59650;BME280;46162;57.568;25.814;2022-11-11T08:12:27;100972.72;;;8.36;100.00
59650;BME280;46162;57.568;25.814;2022-11-11T08:15:43;100973.69;;;8.35;100.00
59650;BME280;46162;57.568;25.814;2022-11-11T08:18:31;100977.75;;;8.41;100.00
59650;BME280;46162;57.568;25.814;2022-11-11T08:21:19;100982.00;;;8.44;100.00
59650;BME280;46162;57.568;25.814;2022-11-11T08:24:07;100993.22;;;8.49;100.00
59650;BME280;46162;57.568;25.814;2022-11-11T08:27:16;100981.19;;;8.53;100.00
59650;BME280;46162;57.568;25.814;2022-11-11T08:30:06;100982.66;;;8.57;100.00
59650;BME280;46162;57.568;25.814;2022-11-11T08:32:56;100985.22;;;8.58;100.00
59650;BME280;46162;57.568;25.814;2022-11-11T08:36:05;100977.72;;;8.62;100.00
59650;BME280;46162;57.568;25.814;2022-11-11T08:38:52;100981.88;;;8.66;100.00
59650;BME280;46162;57.568;25.814;2022-11-11T08:41:43;100992.38;;;8.69;100.00
59650;BME280;46162;57.568;25.814;2022-11-11T08:44:31;100977.66;;;8.73;100.00
59650;BME280;46162;57.568;25.814;2022-11-11T08:47:18;100974.25;;;8.71;100.00
59650;BME280;46162;57.568;25.814;2022-11-11T08:50:07;100967.63;;;8.75;100.00
59650;BME280;46162;57.568;25.814;2022-11-11T08:52:55;100950.59;;;8.75;100.00
59650;BME280;46162;57.568;25.814;2022-11-11T08:55:42;100955.25;;;8.73;100.00
59650;BME280;46162;57.568;25.814;2022-11-11T08:58:30;100963.19;;;8.74;100.00
59650;BME280;46162;57.568;25.814;2022-11-11T09:01:19;100955.72;;;8.78;100.00
59650;BME280;46162;57.568;25.814;2022-11-11T09:04:07;100943.13;;;8.78;100.00
59650;BME280;46162;57.568;25.814;2022-11-11T09:07:17;100951.91;;;8.80;100.00
59650;BME280;46162;57.568;25.814;2022-11-11T09:10:05;100959.72;;;8.83;100.00
59650;BME280;46162;57.568;25.814;2022-11-11T09:12:55;100967.06;;;8.81;100.00
59650;BME280;46162;57.568;25.814;2022-11-11T09:15:42;100945.66;;;8.80;100.00
59650;BME280;46162;57.568;25.814;2022-11-11T09:18:31;100938.47;;;8.80;100.00
59650;BME280;46162;57.568;25.814;2022-11-11T09:21:19;100943.56;;;8.83;100.00
59650;BME280;46162;57.568;25.814;2022-11-11T09:24:06;100947.22;;;8.82;100.00
59650;BME280;46162;57.568;25.814;2022-11-11T09:26:53;100945.53;;;8.81;100.00
59650;BME280;46162;57.568;25.814;2022-11-11T09:29:41;100945.66;;;8.80;100.00
59650;BME280;46162;57.568;25.814;2022-11-11T09:32:28;100942.84;;;8.81;100.00
59650;BME280;46162;57.568;25.814;2022-11-11T09:35:17;100950.06;;;8.81;100.00
59650;BME280;46162;57.568;25.814;2022-11-11T09:38:05;100935.75;;;8.80;100.00
59650;BME280;46162;57.568;25.814;2022-11-11T09:41:03;100938.19;;;8.83;100.00
59650;BME280;46162;57.568;25.814;2022-11-11T09:43:57;100924.44;;;8.87;100.00
59650;BME280;46162;57.568;25.814;2022-11-11T09:46:53;100917.09;;;8.89;100.00
59650;BME280;46162;57.568;25.814;2022-11-11T09:49:51;100918.78;;;8.90;100.00
59650;BME280;46162;57.568;25.814;2022-11-11T09:52:52;100911.41;;;8.92;100.00
59650;BME280;46162;57.568;25.814;2022-11-11T09:55:41;100914.28;;;8.90;100.00
59650;BME280;46162;57.568;25.814;2022-11-11T09:58:32;100910.44;;;8.93;100.00
59650;BME280;46162;57.568;25.814;2022-11-11T10:01:21;100920.22;;;8.94;100.00
59650;BME280;46162;57.568;25.814;2022-11-11T10:04:19;100918.25;;;8.96;100.00
59650;BME280;46162;57.568;25.814;2022-11-11T10:07:13;100918.25;;;8.96;100.00
59650;BME280;46162;57.568;25.814;2022-11-11T10:10:13;100912.72;;;8.97;100.00
59650;BME280;46162;57.568;25.814;2022-11-11T10:13:02;100908.44;;;8.95;100.00
59650;BME280;46162;57.568;25.814;2022-11-11T10:15:57;100890.59;;;8.94;100.00
59650;BME280;46162;57.568;25.814;2022-11-11T10:18:54;100874.31;;;8.95;100.00
59650;BME280;46162;57.568;25.814;2022-11-11T10:21:50;100876.84;;;8.97;100.00
59650;BME280;46162;57.568;25.814;2022-11-11T10:25:13;100880.28;;;8.99;100.00
59650;BME280;46162;57.568;25.814;2022-11-11T10:28:03;100874.03;;;8.98;100.00
59650;BME280;46162;57.568;25.814;2022-11-11T10:30:53;100865.81;;;9.00;100.00
59650;BME280;46162;57.568;25.814;2022-11-11T10:33:45;100868.50;;;9.00;100.00
59650;BME280;46162;57.568;25.814;2022-11-11T10:36:37;100863.81;;;9.02;100.00
59650;BME280;46162;57.568;25.814;2022-11-11T10:39:40;100879.75;;;9.05;100.00
59650;BME280;46162;57.568;25.814;2022-11-11T10:42:33;100877.72;;;9.07;100.00
59650;BME280;46162;57.568;25.814;2022-11-11T10:45:34;100882.88;;;9.10;100.00
59650;BME280;46162;57.568;25.814;2022-11-11T10:48:33;100885.28;;;9.13;100.00
59650;BME280;46162;57.568;25.814;2022-11-11T10:51:32;100884.28;;;9.14;100.00
59650;BME280;46162;57.568;25.814;2022-11-11T10:54:24;100873.50;;;9.14;100.00
59650;BME280;46162;57.568;25.814;2022-11-11T10:57:16;100877.75;;;9.17;100.00
59650;BME280;46162;57.568;25.814;2022-11-11T11:00:09;100872.25;;;9.18;100.00
59650;BME280;46162;57.568;25.814;2022-11-11T11:03:05;100879.19;;;9.21;100.00
59650;BME280;46162;57.568;25.814;2022-11-11T11:05:57;100889.13;;;9.20;100.00
59650;BME280;46162;57.568;25.814;2022-11-11T11:08:51;100886.28;;;9.22;100.00
59650;BME280;46162;57.568;25.814;2022-11-11T11:11:44;100871.84;;;9.23;100.00
59650;BME280;46162;57.568;25.814;2022-11-11T11:14:38;100866.16;;;9.26;100.00
59650;BME280;46162;57.568;25.814;2022-11-11T11:17:34;100859.09;;;9.25;100.00
59650;BME280;46162;57.568;25.814;2022-11-11T11:20:23;100851.69;;;9.27;100.00
59650;BME280;46162;57.568;25.814;2022-11-11T11:23:10;100865.03;;;9.29;100.00
59650;BME280;46162;57.568;25.814;2022-11-11T11:25:58;100855.94;;;9.30;100.00
59650;BME280;46162;57.568;25.814;2022-11-11T11:28:55;100868.31;;;9.32;100.00
59650;BME280;46162;57.568;25.814;2022-11-11T11:31:42;100871.69;;;9.34;100.00
59650;BME280;46162;57.568;25.814;2022-11-11T11:34:47;100869.00;;;9.34;100.00
59650;BME280;46162;57.568;25.814;2022-11-11T11:37:48;100862.78;;;9.34;100.00
59650;BME280;46162;57.568;25.814;2022-11-11T11:40:50;100866.19;;;9.36;100.00
59650;BME280;46162;57.568;25.814;2022-11-11T11:43:38;100861.78;;;9.35;100.00
59650;BME280;46162;57.568;25.814;2022-11-11T11:46:29;100864.91;;;9.40;100.00
59650;BME280;46162;57.568;25.814;2022-11-11T11:49:27;100866.59;;;9.41;100.00
59650;BME280;46162;57.568;25.814;2022-11-11T11:52:29;100864.47;;;9.44;100.00
59650;BME280;46162;57.568;25.814;2022-11-11T11:55:30;100872.44;;;9.46;100.00
59650;BME280;46162;57.568;25.814;2022-11-11T11:58:29;100872.31;;;9.47;100.00
59650;BME280;46162;57.568;25.814;2022-11-11T12:01:31;100871.47;;;9.47;100.00
59650;BME280;46162;57.568;25.814;2022-11-11T12:07:45;100860.69;;;9.47;100.00
59650;BME280;46162;57.568;25.814;2022-11-11T12:10:42;100859.66;;;9.48;100.00
59650;BME280;46162;57.568;25.814;2022-11-11T12:13:37;100854.00;;;9.51;100.00
59650;BME280;46162;57.568;25.814;2022-11-11T12:16:31;100850.31;;;9.52;100.00
59650;BME280;46162;57.568;25.814;2022-11-11T12:19:39;100844.66;;;9.55;100.00
59650;BME280;46162;57.568;25.814;2022-11-11T12:22:38;100838.41;;;9.55;100.00
59650;BME280;46162;57.568;25.814;2022-11-11T12:25:35;100835.56;;;9.56;100.00
59650;BME280;46162;57.568;25.814;2022-11-11T12:28:35;100820.09;;;9.58;100.00
59650;BME280;46162;57.568;25.814;2022-11-11T12:31:33;100825.19;;;9.61;100.00
59650;BME280;46162;57.568;25.814;2022-11-11T12:34:55;100821.34;;;9.64;100.00
59650;BME280;46162;57.568;25.814;2022-11-11T12:37:58;100825.78;;;9.65;100.00
59650;BME280;46162;57.568;25.814;2022-11-11T12:40:59;100813.84;;;9.67;100.00
59650;BME280;46162;57.568;25.814;2022-11-11T12:43:56;100826.31;;;9.68;100.00
59650;BME280;46162;57.568;25.814;2022-11-11T12:46:56;100836.13;;;9.69;100.00
59650;BME280;46162;57.568;25.814;2022-11-11T12:49:56;100831.44;;;9.72;100.00
59650;BME280;46162;57.568;25.814;2022-11-11T12:52:55;100829.59;;;9.72;100.00
59650;BME280;46162;57.568;25.814;2022-11-11T12:55:50;100835.84;;;9.73;100.00
59650;BME280;46162;57.568;25.814;2022-11-11T12:58:44;100831.16;;;9.75;100.00
59650;BME280;46162;57.568;25.814;2022-11-11T13:01:49;100831.16;;;9.75;100.00
59650;BME280;46162;57.568;25.814;2022-11-11T13:04:57;100837.41;;;9.75;100.00
59650;BME280;46162;57.568;25.814;2022-11-11T13:08:23;100836.41;;;9.76;100.00
59650;BME280;46162;57.568;25.814;2022-11-11T13:11:21;100841.66;;;9.78;100.00
59650;BME280;46162;57.568;25.814;2022-11-11T13:14:38;100840.66;;;9.79;100.00
59650;BME280;46162;57.568;25.814;2022-11-11T13:17:31;100850.59;;;9.78;100.00
59650;BME280;46162;57.568;25.814;2022-11-11T13:20:29;100846.91;;;9.79;100.00
59650;BME280;46162;57.568;25.814;2022-11-11T13:23:23;100852.31;;;9.79;100.00
59650;BME280;46162;57.568;25.814;2022-11-11T13:26:22;100851.19;;;9.82;100.00
59650;BME280;46162;57.568;25.814;2022-11-11T13:29:42;100855.00;;;9.79;100.00
59650;BME280;46162;57.568;25.814;2022-11-11T13:32:36;100846.91;;;9.79;100.00
59650;BME280;46162;57.568;25.814;2022-11-11T13:35:29;100859.09;;;9.83;100.00
59650;BME280;46162;57.568;25.814;2022-11-11T13:38:30;100866.34;;;9.83;100.00
59650;BME280;46162;57.568;25.814;2022-11-11T13:41:22;100855.56;;;9.83;100.00
59650;BME280;46162;57.568;25.814;2022-11-11T13:44:20;100858.13;;;9.84;100.00
59650;BME280;46162;57.568;25.814;2022-11-11T13:47:13;100848.03;;;9.86;100.00
59650;BME280;46162;57.568;25.814;2022-11-11T13:50:05;100855.25;;;9.86;100.00
59650;BME280;46162;57.568;25.814;2022-11-11T13:52:58;100851.44;;;9.88;100.00
59650;BME280;46162;57.568;25.814;2022-11-11T13:55:49;100849.75;;;9.87;100.00
59650;BME280;46162;57.568;25.814;2022-11-11T13:58:40;100841.34;;;9.90;100.00
59650;BME280;46162;57.568;25.814;2022-11-11T14:01:36;100843.22;;;9.90;100.00
59650;BME280;46162;57.568;25.814;2022-11-11T14:04:27;100847.59;;;9.91;100.00
59650;BME280;46162;57.568;25.814;2022-11-11T14:07:47;100842.91;;;9.93;100.00
59650;BME280;46162;57.568;25.814;2022-11-11T14:10:51;100859.09;;;9.93;100.00
59650;BME280;46162;57.568;25.814;2022-11-11T14:13:40;100858.78;;;9.96;100.00
59650;BME280;46162;57.568;25.814;2022-11-11T14:16:59;100852.84;;;10.02;100.00
59650;BME280;46162;57.568;25.814;2022-11-11T14:19:47;100855.38;;;10.04;100.00
59650;BME280;46162;57.568;25.814;2022-11-11T14:22:34;100849.97;;;10.04;100.00
59650;BME280;46162;57.568;25.814;2022-11-11T14:25:24;100847.28;;;10.04;100.00
59650;BME280;46162;57.568;25.814;2022-11-11T14:28:21;100831.69;;;10.07;100.00
59650;BME280;46162;57.568;25.814;2022-11-11T14:34:47;100843.03;;;10.01;100.00
59650;BME280;46162;57.568;25.814;2022-11-11T14:38:04;100840.06;;;10.04;100.00
59650;BME280;46162;57.568;25.814;2022-11-11T14:44:41;100836.66;;;10.02;100.00
59650;BME280;46162;57.568;25.814;2022-11-11T14:47:33;100840.06;;;10.04;100.00
59650;BME280;46162;57.568;25.814;2022-11-11T14:50:42;100834.94;;;10.01;100.00
59650;BME280;46162;57.568;25.814;2022-11-11T14:53:35;100832.97;;;10.03;100.00
59650;BME280;46162;57.568;25.814;2022-11-11T14:56:25;100835.81;;;10.02;100.00
59650;BME280;46162;57.568;25.814;2022-11-11T14:59:17;100836.50;;;10.04;100.00
59650;BME280;46162;57.568;25.814;2022-11-11T15:02:20;100850.84;;;10.04;100.00
59650;BME280;46162;57.568;25.814;2022-11-11T15:05:14;100846.44;;;10.03;100.00
59650;BME280;46162;57.568;25.814;2022-11-11T15:08:20;100841.75;;;10.05;100.00